sensor_id;sensor_type;location;lat;lon;timestamp;temperature;humidity
56184;DHT22;42086;53.170;6.980;2022-08-23T00:01:40;16.90;99.90
56184;DHT22;42086;53.170;6.980;2022-08-23T00:04:10;16.80;99.90
56184;DHT22;42086;53.170;6.980;2022-08-23T00:06:36;16.70;99.90
56184;DHT22;42086;53.170;6.980;2022-08-23T00:09:03;16.60;99.90
56184;DHT22;42086;53.170;6.980;2022-08-23T00:11:38;16.60;99.90
56184;DHT22;42086;53.170;6.980;2022-08-23T00:14:11;16.50;99.90
56184;DHT22;42086;53.170;6.980;2022-08-23T00:16:38;16.50;99.90
56184;DHT22;42086;53.170;6.980;2022-08-23T00:19:07;16.50;99.90
56184;DHT22;42086;53.170;6.980;2022-08-23T00:21:34;16.50;99.90
56184;DHT22;42086;53.170;6.980;2022-08-23T00:24:01;16.50;99.90
56184;DHT22;42086;53.170;6.980;2022-08-23T00:26:48;16.40;99.90
56184;DHT22;42086;53.170;6.980;2022-08-23T00:29:14;16.40;99.90
56184;DHT22;42086;53.170;6.980;2022-08-23T00:31:40;16.40;99.90
56184;DHT22;42086;53.170;6.980;2022-08-23T00:34:06;16.40;99.90
56184;DHT22;42086;53.170;6.980;2022-08-23T00:36:32;16.40;99.90
56184;DHT22;42086;53.170;6.980;2022-08-23T00:38:58;16.40;99.90
56184;DHT22;42086;53.170;6.980;2022-08-23T00:41:32;16.40;99.90
56184;DHT22;42086;53.170;6.980;2022-08-23T00:43:58;16.40;99.90
56184;DHT22;42086;53.170;6.980;2022-08-23T00:46:47;16.40;99.90
56184;DHT22;42086;53.170;6.980;2022-08-23T00:49:33;16.20;99.90
56184;DHT22;42086;53.170;6.980;2022-08-23T00:52:11;16.20;99.90
56184;DHT22;42086;53.170;6.980;2022-08-23T00:54:40;16.20;99.90
56184;DHT22;42086;53.170;6.980;2022-08-23T00:57:11;16.20;99.90
56184;DHT22;42086;53.170;6.980;2022-08-23T00:59:37;16.20;99.90
56184;DHT22;42086;53.170;6.980;2022-08-23T01:02:04;16.10;99.90
56184;DHT22;42086;53.170;6.980;2022-08-23T01:04:32;16.10;99.90
56184;DHT22;42086;53.170;6.980;2022-08-23T01:09:35;16.20;99.90
56184;DHT22;42086;53.170;6.980;2022-08-23T01:12:07;16.20;99.90
56184;DHT22;42086;53.170;6.980;2022-08-23T01:14:53;16.30;99.90
56184;DHT22;42086;53.170;6.980;2022-08-23T01:17:45;16.30;99.90
56184;DHT22;42086;53.170;6.980;2022-08-23T01:20:15;16.40;99.90
56184;DHT22;42086;53.170;6.980;2022-08-23T01:23:04;16.40;99.90
56184;DHT22;42086;53.170;6.980;2022-08-23T01:25:32;16.40;99.90
56184;DHT22;42086;53.170;6.980;2022-08-23T01:27:58;16.30;99.90
56184;DHT22;42086;53.170;6.980;2022-08-23T01:30:27;16.30;99.90
56184;DHT22;42086;53.170;6.980;2022-08-23T01:32:58;16.30;99.90
56184;DHT22;42086;53.170;6.980;2022-08-23T01:35:34;16.20;99.90
56184;DHT22;42086;53.170;6.980;2022-08-23T01:38:01;16.20;99.90
56184;DHT22;42086;53.170;6.980;2022-08-23T01:40:27;16.20;99.90
56184;DHT22;42086;53.170;6.980;2022-08-23T01:42:53;16.10;99.90
56184;DHT22;42086;53.170;6.980;2022-08-23T01:45:19;16.10;99.90
56184;DHT22;42086;53.170;6.980;2022-08-23T01:47:45;16.10;99.90
56184;DHT22;42086;53.170;6.980;2022-08-23T01:50:11;16.10;99.90
56184;DHT22;42086;53.170;6.980;2022-08-23T01:52:39;16.00;99.90
56184;DHT22;42086;53.170;6.980;2022-08-23T01:55:06;16.00;99.90
56184;DHT22;42086;53.170;6.980;2022-08-23T01:57:32;16.10;99.90
56184;DHT22;42086;53.170;6.980;2022-08-23T01:59:58;16.00;99.90
56184;DHT22;42086;53.170;6.980;2022-08-23T02:02:24;16.00;99.90
56184;DHT22;42086;53.170;6.980;2022-08-23T02:04:50;16.00;99.90
56184;DHT22;42086;53.170;6.980;2022-08-23T02:07:17;15.90;99.90
56184;DHT22;42086;53.170;6.980;2022-08-23T02:09:45;15.90;99.90
56184;DHT22;42086;53.170;6.980;2022-08-23T02:12:11;15.80;99.90
56184;DHT22;42086;53.170;6.980;2022-08-23T02:14:37;15.80;99.90
56184;DHT22;42086;53.170;6.980;2022-08-23T02:17:06;15.80;99.90
56184;DHT22;42086;53.170;6.980;2022-08-23T02:19:33;15.80;99.90
56184;DHT22;42086;53.170;6.980;2022-08-23T02:21:59;15.90;99.90
56184;DHT22;42086;53.170;6.980;2022-08-23T02:24:25;15.80;99.90
56184;DHT22;42086;53.170;6.980;2022-08-23T02:26:56;15.80;99.90
56184;DHT22;42086;53.170;6.980;2022-08-23T02:29:25;15.70;99.90
56184;DHT22;42086;53.170;6.980;2022-08-23T02:31:54;15.70;99.90
56184;DHT22;42086;53.170;6.980;2022-08-23T02:34:20;15.80;99.90
56184;DHT22;42086;53.170;6.980;2022-08-23T02:36:46;15.70;99.90
56184;DHT22;42086;53.170;6.980;2022-08-23T02:39:13;15.70;99.90
56184;DHT22;42086;53.170;6.980;2022-08-23T02:41:39;15.60;99.90
56184;DHT22;42086;53.170;6.980;2022-08-23T02:44:06;15.60;99.90
56184;DHT22;42086;53.170;6.980;2022-08-23T02:46:32;15.60;99.90
56184;DHT22;42086;53.170;6.980;2022-08-23T02:48:58;15.60;99.90
56184;DHT22;42086;53.170;6.980;2022-08-23T02:51:24;15.60;99.90
56184;DHT22;42086;53.170;6.980;2022-08-23T02:53:50;15.40;99.90
56184;DHT22;42086;53.170;6.980;2022-08-23T02:56:16;15.40;99.90
56184;DHT22;42086;53.170;6.980;2022-08-23T02:58:43;15.40;99.90
56184;DHT22;42086;53.170;6.980;2022-08-23T03:01:22;15.40;99.90
56184;DHT22;42086;53.170;6.980;2022-08-23T03:03:50;15.40;99.90
56184;DHT22;42086;53.170;6.980;2022-08-23T03:06:16;15.40;99.90
56184;DHT22;42086;53.170;6.980;2022-08-23T03:08:43;15.30;99.90
56184;DHT22;42086;53.170;6.980;2022-08-23T03:11:18;15.30;99.90
56184;DHT22;42086;53.170;6.980;2022-08-23T03:13:46;15.40;99.90
56184;DHT22;42086;53.170;6.980;2022-08-23T03:16:14;15.40;99.90
56184;DHT22;42086;53.170;6.980;2022-08-23T03:18:40;15.30;99.90
56184;DHT22;42086;53.170;6.980;2022-08-23T03:21:07;15.30;99.90
56184;DHT22;42086;53.170;6.980;2022-08-23T03:23:34;15.30;99.90
56184;DHT22;42086;53.170;6.980;2022-08-23T03:26:01;15.30;99.90
56184;DHT22;42086;53.170;6.980;2022-08-23T03:28:28;15.20;99.90
56184;DHT22;42086;53.170;6.980;2022-08-23T03:30:55;15.20;99.90
56184;DHT22;42086;53.170;6.980;2022-08-23T03:33:22;15.10;99.90
56184;DHT22;42086;53.170;6.980;2022-08-23T03:35:48;15.10;99.90
56184;DHT22;42086;53.170;6.980;2022-08-23T03:38:15;15.10;99.90
56184;DHT22;42086;53.170;6.980;2022-08-23T03:40:42;15.10;99.90
56184;DHT22;42086;53.170;6.980;2022-08-23T03:43:08;15.10;99.90
56184;DHT22;42086;53.170;6.980;2022-08-23T03:45:34;15.10;99.90
56184;DHT22;42086;53.170;6.980;2022-08-23T03:48:00;15.00;99.90
56184;DHT22;42086;53.170;6.980;2022-08-23T03:50:26;15.00;99.90
56184;DHT22;42086;53.170;6.980;2022-08-23T03:52:52;15.00;99.90
56184;DHT22;42086;53.170;6.980;2022-08-23T03:55:18;15.00;99.90
56184;DHT22;42086;53.170;6.980;2022-08-23T03:57:44;15.00;99.90
56184;DHT22;42086;53.170;6.980;2022-08-23T04:00:12;15.00;99.90
56184;DHT22;42086;53.170;6.980;2022-08-23T04:02:39;14.90;99.90
56184;DHT22;42086;53.170;6.980;2022-08-23T04:05:05;14.80;99.90
56184;DHT22;42086;53.170;6.980;2022-08-23T04:07:32;14.80;99.90
56184;DHT22;42086;53.170;6.980;2022-08-23T04:10:00;14.90;99.90
56184;DHT22;42086;53.170;6.980;2022-08-23T04:12:26;14.90;99.90
56184;DHT22;42086;53.170;6.980;2022-08-23T04:14:53;14.90;99.90
56184;DHT22;42086;53.170;6.980;2022-08-23T04:17:19;15.00;99.90
56184;DHT22;42086;53.170;6.980;2022-08-23T04:19:47;15.00;99.90
56184;DHT22;42086;53.170;6.980;2022-08-23T04:22:15;15.10;99.90
56184;DHT22;42086;53.170;6.980;2022-08-23T04:24:42;15.10;99.90
56184;DHT22;42086;53.170;6.980;2022-08-23T04:27:08;15.10;99.90
56184;DHT22;42086;53.170;6.980;2022-08-23T04:29:34;15.10;99.90
56184;DHT22;42086;53.170;6.980;2022-08-23T04:32:03;15.20;99.90
56184;DHT22;42086;53.170;6.980;2022-08-23T04:34:29;15.20;99.90
56184;DHT22;42086;53.170;6.980;2022-08-23T04:36:55;15.20;99.90
56184;DHT22;42086;53.170;6.980;2022-08-23T04:39:20;15.20;99.90
56184;DHT22;42086;53.170;6.980;2022-08-23T04:41:46;15.20;99.90
56184;DHT22;42086;53.170;6.980;2022-08-23T04:44:30;15.20;99.90
56184;DHT22;42086;53.170;6.980;2022-08-23T04:46:56;15.30;99.90
56184;DHT22;42086;53.170;6.980;2022-08-23T04:49:22;15.30;99.90
56184;DHT22;42086;53.170;6.980;2022-08-23T04:51:49;15.40;99.90
56184;DHT22;42086;53.170;6.980;2022-08-23T04:54:15;15.50;99.90
56184;DHT22;42086;53.170;6.980;2022-08-23T04:56:41;15.50;99.90
56184;DHT22;42086;53.170;6.980;2022-08-23T04:59:08;15.60;99.90
56184;DHT22;42086;53.170;6.980;2022-08-23T05:01:34;15.70;99.90
56184;DHT22;42086;53.170;6.980;2022-08-23T05:04:01;15.70;99.90
56184;DHT22;42086;53.170;6.980;2022-08-23T05:06:28;15.80;99.90
56184;DHT22;42086;53.170;6.980;2022-08-23T05:08:54;15.80;99.90
56184;DHT22;42086;53.170;6.980;2022-08-23T05:11:20;15.70;99.90
56184;DHT22;42086;53.170;6.980;2022-08-23T05:13:46;15.70;99.90
56184;DHT22;42086;53.170;6.980;2022-08-23T05:16:13;15.80;99.90
56184;DHT22;42086;53.170;6.980;2022-08-23T05:18:39;15.80;99.90
56184;DHT22;42086;53.170;6.980;2022-08-23T05:21:05;15.80;99.90
56184;DHT22;42086;53.170;6.980;2022-08-23T05:23:32;15.90;99.90
56184;DHT22;42086;53.170;6.980;2022-08-23T05:25:58;16.00;99.90
56184;DHT22;42086;53.170;6.980;2022-08-23T05:28:30;16.00;99.90
56184;DHT22;42086;53.170;6.980;2022-08-23T05:31:00;16.10;99.90
56184;DHT22;42086;53.170;6.980;2022-08-23T05:33:28;16.20;99.90
56184;DHT22;42086;53.170;6.980;2022-08-23T05:35:54;16.30;99.90
56184;DHT22;42086;53.170;6.980;2022-08-23T05:38:21;16.50;99.90
56184;DHT22;42086;53.170;6.980;2022-08-23T05:40:56;16.60;99.90
56184;DHT22;42086;53.170;6.980;2022-08-23T05:43:23;16.80;99.90
56184;DHT22;42086;53.170;6.980;2022-08-23T05:48:30;17.10;99.90
56184;DHT22;42086;53.170;6.980;2022-08-23T05:50:57;17.20;99.90
56184;DHT22;42086;53.170;6.980;2022-08-23T05:53:22;17.40;99.90
56184;DHT22;42086;53.170;6.980;2022-08-23T05:55:49;17.60;99.90
56184;DHT22;42086;53.170;6.980;2022-08-23T05:58:15;17.70;99.90
56184;DHT22;42086;53.170;6.980;2022-08-23T06:00:41;17.90;99.90
56184;DHT22;42086;53.170;6.980;2022-08-23T06:03:07;18.00;99.90
56184;DHT22;42086;53.170;6.980;2022-08-23T06:05:37;18.10;99.90
56184;DHT22;42086;53.170;6.980;2022-08-23T06:08:05;18.30;99.90
56184;DHT22;42086;53.170;6.980;2022-08-23T06:10:31;18.40;99.90
56184;DHT22;42086;53.170;6.980;2022-08-23T06:12:56;18.50;99.90
56184;DHT22;42086;53.170;6.980;2022-08-23T06:15:22;18.70;99.90
56184;DHT22;42086;53.170;6.980;2022-08-23T06:17:48;18.80;99.90
56184;DHT22;42086;53.170;6.980;2022-08-23T06:20:14;18.90;99.90
56184;DHT22;42086;53.170;6.980;2022-08-23T06:22:40;19.00;99.90
56184;DHT22;42086;53.170;6.980;2022-08-23T06:25:06;19.10;99.90
56184;DHT22;42086;53.170;6.980;2022-08-23T06:27:32;19.20;99.90
56184;DHT22;42086;53.170;6.980;2022-08-23T06:29:58;19.30;99.90
56184;DHT22;42086;53.170;6.980;2022-08-23T06:32:24;19.40;99.90
56184;DHT22;42086;53.170;6.980;2022-08-23T06:34:50;19.50;99.90
56184;DHT22;42086;53.170;6.980;2022-08-23T06:37:16;19.50;99.90
56184;DHT22;42086;53.170;6.980;2022-08-23T06:39:42;19.60;99.90
56184;DHT22;42086;53.170;6.980;2022-08-23T06:42:11;19.70;99.90
56184;DHT22;42086;53.170;6.980;2022-08-23T06:44:37;19.80;99.90
56184;DHT22;42086;53.170;6.980;2022-08-23T06:47:04;19.90;99.90
56184;DHT22;42086;53.170;6.980;2022-08-23T06:49:30;20.00;99.90
56184;DHT22;42086;53.170;6.980;2022-08-23T06:51:58;20.10;99.90
56184;DHT22;42086;53.170;6.980;2022-08-23T06:54:27;20.20;99.90
56184;DHT22;42086;53.170;6.980;2022-08-23T06:56:54;20.20;99.90
56184;DHT22;42086;53.170;6.980;2022-08-23T06:59:20;20.20;99.90
56184;DHT22;42086;53.170;6.980;2022-08-23T07:01:56;20.30;99.90
56184;DHT22;42086;53.170;6.980;2022-08-23T07:04:31;20.30;99.90
56184;DHT22;42086;53.170;6.980;2022-08-23T07:06:58;20.40;99.90
56184;DHT22;42086;53.170;6.980;2022-08-23T07:09:27;20.50;99.90
56184;DHT22;42086;53.170;6.980;2022-08-23T07:11:53;20.60;99.90
56184;DHT22;42086;53.170;6.980;2022-08-23T07:14:21;20.60;99.90
56184;DHT22;42086;53.170;6.980;2022-08-23T07:16:53;20.80;99.90
56184;DHT22;42086;53.170;6.980;2022-08-23T07:19:23;20.90;99.90
56184;DHT22;42086;53.170;6.980;2022-08-23T07:21:49;20.80;99.90
56184;DHT22;42086;53.170;6.980;2022-08-23T07:24:16;21.20;99.90
56184;DHT22;42086;53.170;6.980;2022-08-23T07:26:43;21.30;99.90
56184;DHT22;42086;53.170;6.980;2022-08-23T07:29:11;21.50;99.90
56184;DHT22;42086;53.170;6.980;2022-08-23T07:31:50;21.60;99.90
56184;DHT22;42086;53.170;6.980;2022-08-23T07:34:17;21.70;99.90
56184;DHT22;42086;53.170;6.980;2022-08-23T07:36:44;21.80;99.90
56184;DHT22;42086;53.170;6.980;2022-08-23T07:39:12;21.90;99.90
56184;DHT22;42086;53.170;6.980;2022-08-23T07:41:38;22.00;99.90
56184;DHT22;42086;53.170;6.980;2022-08-23T07:44:05;22.20;99.90
56184;DHT22;42086;53.170;6.980;2022-08-23T07:46:33;22.20;99.90
56184;DHT22;42086;53.170;6.980;2022-08-23T07:49:00;22.30;99.90
56184;DHT22;42086;53.170;6.980;2022-08-23T07:51:28;22.50;99.90
56184;DHT22;42086;53.170;6.980;2022-08-23T07:53:54;22.60;99.90
56184;DHT22;42086;53.170;6.980;2022-08-23T07:56:21;22.60;99.90
56184;DHT22;42086;53.170;6.980;2022-08-23T07:58:47;22.80;99.90
56184;DHT22;42086;53.170;6.980;2022-08-23T08:01:14;22.90;99.90
56184;DHT22;42086;53.170;6.980;2022-08-23T08:03:46;23.00;99.90
56184;DHT22;42086;53.170;6.980;2022-08-23T08:06:24;23.00;99.90
56184;DHT22;42086;53.170;6.980;2022-08-23T08:08:50;23.20;99.90
56184;DHT22;42086;53.170;6.980;2022-08-23T08:11:19;23.30;99.90
56184;DHT22;42086;53.170;6.980;2022-08-23T08:13:48;23.40;99.90
56184;DHT22;42086;53.170;6.980;2022-08-23T08:16:26;23.50;99.90
56184;DHT22;42086;53.170;6.980;2022-08-23T08:18:58;23.70;99.90
56184;DHT22;42086;53.170;6.980;2022-08-23T08:21:26;23.80;99.90
56184;DHT22;42086;53.170;6.980;2022-08-23T08:23:52;23.90;99.90
56184;DHT22;42086;53.170;6.980;2022-08-23T08:26:18;24.00;99.90
56184;DHT22;42086;53.170;6.980;2022-08-23T08:28:45;24.10;99.90
56184;DHT22;42086;53.170;6.980;2022-08-23T08:31:12;24.10;99.90
56184;DHT22;42086;53.170;6.980;2022-08-23T08:33:38;24.10;99.90
56184;DHT22;42086;53.170;6.980;2022-08-23T08:36:05;24.20;99.90
56184;DHT22;42086;53.170;6.980;2022-08-23T08:38:33;24.30;99.90
56184;DHT22;42086;53.170;6.980;2022-08-23T08:41:21;24.50;99.90
56184;DHT22;42086;53.170;6.980;2022-08-23T08:46:50;24.70;99.90
56184;DHT22;42086;53.170;6.980;2022-08-23T08:49:46;24.80;99.90
56184;DHT22;42086;53.170;6.980;2022-08-23T08:52:19;24.90;99.90
56184;DHT22;42086;53.170;6.980;2022-08-23T08:54:48;25.10;99.90
56184;DHT22;42086;53.170;6.980;2022-08-23T08:57:18;25.30;99.90
56184;DHT22;42086;53.170;6.980;2022-08-23T09:02:27;25.50;99.90
56184;DHT22;42086;53.170;6.980;2022-08-23T09:04:54;25.70;99.90
56184;DHT22;42086;53.170;6.980;2022-08-23T09:13:07;25.90;99.90
56184;DHT22;42086;53.170;6.980;2022-08-23T09:18:15;25.90;99.90
56184;DHT22;42086;53.170;6.980;2022-08-23T09:20:50;26.10;99.90
56184;DHT22;42086;53.170;6.980;2022-08-23T09:23:24;26.20;99.90
56184;DHT22;42086;53.170;6.980;2022-08-23T09:26:02;26.10;99.90
56184;DHT22;42086;53.170;6.980;2022-08-23T09:28:33;26.00;99.90
56184;DHT22;42086;53.170;6.980;2022-08-23T09:31:01;26.00;99.90
56184;DHT22;42086;53.170;6.980;2022-08-23T09:33:44;26.00;99.90
56184;DHT22;42086;53.170;6.980;2022-08-23T09:36:20;26.00;99.90
56184;DHT22;42086;53.170;6.980;2022-08-23T09:38:55;26.10;99.90
56184;DHT22;42086;53.170;6.980;2022-08-23T09:41:27;26.20;99.90
56184;DHT22;42086;53.170;6.980;2022-08-23T09:43:53;26.30;99.90
56184;DHT22;42086;53.170;6.980;2022-08-23T09:46:25;26.30;99.90
56184;DHT22;42086;53.170;6.980;2022-08-23T09:48:51;26.10;99.90
56184;DHT22;42086;53.170;6.980;2022-08-23T09:51:28;26.30;99.90
56184;DHT22;42086;53.170;6.980;2022-08-23T09:54:18;26.50;99.90
56184;DHT22;42086;53.170;6.980;2022-08-23T09:56:53;26.90;98.50
56184;DHT22;42086;53.170;6.980;2022-08-23T10:01:52;27.40;97.50
56184;DHT22;42086;53.170;6.980;2022-08-23T10:04:41;27.70;96.40
56184;DHT22;42086;53.170;6.980;2022-08-23T10:07:42;27.90;94.30
56184;DHT22;42086;53.170;6.980;2022-08-23T10:10:37;28.20;94.10
56184;DHT22;42086;53.170;6.980;2022-08-23T10:13:11;28.60;95.00
56184;DHT22;42086;53.170;6.980;2022-08-23T10:21:03;28.90;87.10
56184;DHT22;42086;53.170;6.980;2022-08-23T10:25:58;29.00;85.20
56184;DHT22;42086;53.170;6.980;2022-08-23T10:28:57;29.20;85.10
56184;DHT22;42086;53.170;6.980;2022-08-23T10:40:59;29.30;77.90
56184;DHT22;42086;53.170;6.980;2022-08-23T10:46:06;29.60;75.60
56184;DHT22;42086;53.170;6.980;2022-08-23T10:48:56;29.70;78.00
56184;DHT22;42086;53.170;6.980;2022-08-23T10:51:23;29.70;74.80
56184;DHT22;42086;53.170;6.980;2022-08-23T10:54:19;29.70;77.00
56184;DHT22;42086;53.170;6.980;2022-08-23T10:56:59;29.90;74.80
56184;DHT22;42086;53.170;6.980;2022-08-23T10:59:26;30.00;76.40
56184;DHT22;42086;53.170;6.980;2022-08-23T11:01:59;30.10;75.30
56184;DHT22;42086;53.170;6.980;2022-08-23T11:07:29;30.10;71.30
56184;DHT22;42086;53.170;6.980;2022-08-23T11:10:14;30.20;72.60
56184;DHT22;42086;53.170;6.980;2022-08-23T11:15:36;29.90;69.80
56184;DHT22;42086;53.170;6.980;2022-08-23T11:18:05;30.00;73.20
56184;DHT22;42086;53.170;6.980;2022-08-23T11:23:23;29.90;69.70
56184;DHT22;42086;53.170;6.980;2022-08-23T11:26:00;29.90;69.70
56184;DHT22;42086;53.170;6.980;2022-08-23T11:36:22;30.20;66.90
56184;DHT22;42086;53.170;6.980;2022-08-23T11:44:15;30.30;68.80
56184;DHT22;42086;53.170;6.980;2022-08-23T11:59:42;31.10;64.30
56184;DHT22;42086;53.170;6.980;2022-08-23T12:02:33;31.40;64.60
56184;DHT22;42086;53.170;6.980;2022-08-23T12:05:08;31.40;60.70
56184;DHT22;42086;53.170;6.980;2022-08-23T12:21:28;32.80;59.30
56184;DHT22;42086;53.170;6.980;2022-08-23T12:24:02;32.90;58.00
56184;DHT22;42086;53.170;6.980;2022-08-23T12:26:43;32.70;57.10
56184;DHT22;42086;53.170;6.980;2022-08-23T12:32:24;33.20;56.50
56184;DHT22;42086;53.170;6.980;2022-08-23T12:40:45;33.40;54.70
56184;DHT22;42086;53.170;6.980;2022-08-23T12:45:44;34.10;55.90
56184;DHT22;42086;53.170;6.980;2022-08-23T12:48:13;34.40;52.40
56184;DHT22;42086;53.170;6.980;2022-08-23T12:50:44;34.70;53.40
56184;DHT22;42086;53.170;6.980;2022-08-23T12:53:16;34.90;53.10
56184;DHT22;42086;53.170;6.980;2022-08-23T12:55:50;35.10;52.40
56184;DHT22;42086;53.170;6.980;2022-08-23T12:58:29;35.80;53.40
56184;DHT22;42086;53.170;6.980;2022-08-23T13:00:58;36.00;50.10
56184;DHT22;42086;53.170;6.980;2022-08-23T13:03:38;36.10;50.60
56184;DHT22;42086;53.170;6.980;2022-08-23T13:06:07;34.80;48.10
56184;DHT22;42086;53.170;6.980;2022-08-23T13:08:55;34.40;49.20
56184;DHT22;42086;53.170;6.980;2022-08-23T13:11:26;34.10;49.10
56184;DHT22;42086;53.170;6.980;2022-08-23T13:13:53;33.90;51.40
56184;DHT22;42086;53.170;6.980;2022-08-23T13:18:52;33.70;50.80
56184;DHT22;42086;53.170;6.980;2022-08-23T13:21:27;33.90;51.40
56184;DHT22;42086;53.170;6.980;2022-08-23T13:23:59;34.20;50.20
56184;DHT22;42086;53.170;6.980;2022-08-23T13:29:06;34.30;49.80
56184;DHT22;42086;53.170;6.980;2022-08-23T13:31:56;34.80;50.20
56184;DHT22;42086;53.170;6.980;2022-08-23T13:37:27;35.20;48.40
56184;DHT22;42086;53.170;6.980;2022-08-23T13:39:55;35.20;48.00
56184;DHT22;42086;53.170;6.980;2022-08-23T13:45:12;34.40;48.60
56184;DHT22;42086;53.170;6.980;2022-08-23T13:47:45;34.40;49.10
56184;DHT22;42086;53.170;6.980;2022-08-23T13:50:27;34.90;49.00
56184;DHT22;42086;53.170;6.980;2022-08-23T13:52:53;35.30;48.30
56184;DHT22;42086;53.170;6.980;2022-08-23T13:55:19;36.00;48.20
56184;DHT22;42086;53.170;6.980;2022-08-23T13:57:45;36.50;47.10
56184;DHT22;42086;53.170;6.980;2022-08-23T14:00:11;36.60;45.70
56184;DHT22;42086;53.170;6.980;2022-08-23T14:02:38;35.50;46.00
56184;DHT22;42086;53.170;6.980;2022-08-23T14:05:07;34.80;46.60
56184;DHT22;42086;53.170;6.980;2022-08-23T14:07:34;34.30;47.20
56184;DHT22;42086;53.170;6.980;2022-08-23T14:10:00;34.60;46.80
56184;DHT22;42086;53.170;6.980;2022-08-23T14:12:31;34.60;46.90
56184;DHT22;42086;53.170;6.980;2022-08-23T14:14:59;34.90;47.30
56184;DHT22;42086;53.170;6.980;2022-08-23T14:17:26;35.50;46.80
56184;DHT22;42086;53.170;6.980;2022-08-23T14:19:52;36.60;46.00
56184;DHT22;42086;53.170;6.980;2022-08-23T14:22:17;37.10;45.30
56184;DHT22;42086;53.170;6.980;2022-08-23T14:24:44;37.60;44.70
56184;DHT22;42086;53.170;6.980;2022-08-23T14:27:11;37.50;43.80
56184;DHT22;42086;53.170;6.980;2022-08-23T14:29:37;37.90;43.00
56184;DHT22;42086;53.170;6.980;2022-08-23T14:32:03;38.50;42.50
56184;DHT22;42086;53.170;6.980;2022-08-23T14:34:29;38.00;42.40
56184;DHT22;42086;53.170;6.980;2022-08-23T14:36:56;37.70;42.30
56184;DHT22;42086;53.170;6.980;2022-08-23T14:39:22;36.80;42.70
56184;DHT22;42086;53.170;6.980;2022-08-23T14:41:49;36.50;42.50
56184;DHT22;42086;53.170;6.980;2022-08-23T14:44:15;35.90;43.50
56184;DHT22;42086;53.170;6.980;2022-08-23T14:46:42;35.20;44.40
56184;DHT22;42086;53.170;6.980;2022-08-23T14:49:10;34.60;45.40
56184;DHT22;42086;53.170;6.980;2022-08-23T14:51:39;34.30;46.10
56184;DHT22;42086;53.170;6.980;2022-08-23T14:54:07;34.30;46.90
56184;DHT22;42086;53.170;6.980;2022-08-23T14:56:35;33.90;46.60
56184;DHT22;42086;53.170;6.980;2022-08-23T14:59:01;34.00;47.50
56184;DHT22;42086;53.170;6.980;2022-08-23T15:01:30;34.00;47.60
56184;DHT22;42086;53.170;6.980;2022-08-23T15:03:56;33.70;47.90
56184;DHT22;42086;53.170;6.980;2022-08-23T15:06:26;33.50;47.90
56184;DHT22;42086;53.170;6.980;2022-08-23T15:08:52;33.20;48.10
56184;DHT22;42086;53.170;6.980;2022-08-23T15:11:18;33.10;48.40
56184;DHT22;42086;53.170;6.980;2022-08-23T15:13:44;33.10;48.40
56184;DHT22;42086;53.170;6.980;2022-08-23T15:16:14;33.50;48.20
56184;DHT22;42086;53.170;6.980;2022-08-23T15:18:46;33.60;48.20
56184;DHT22;42086;53.170;6.980;2022-08-23T15:21:13;33.60;47.70
56184;DHT22;42086;53.170;6.980;2022-08-23T15:23:40;33.80;47.80
56184;DHT22;42086;53.170;6.980;2022-08-23T15:26:07;34.10;47.10
56184;DHT22;42086;53.170;6.980;2022-08-23T15:28:33;33.80;46.40
56184;DHT22;42086;53.170;6.980;2022-08-23T15:30:59;34.10;46.60
56184;DHT22;42086;53.170;6.980;2022-08-23T15:33:26;34.30;46.30
56184;DHT22;42086;53.170;6.980;2022-08-23T15:35:52;34.00;47.30
56184;DHT22;42086;53.170;6.980;2022-08-23T15:38:23;34.10;47.30
56184;DHT22;42086;53.170;6.980;2022-08-23T15:40:51;34.20;46.50
56184;DHT22;42086;53.170;6.980;2022-08-23T15:43:18;34.10;46.90
56184;DHT22;42086;53.170;6.980;2022-08-23T15:45:46;34.20;47.20
56184;DHT22;42086;53.170;6.980;2022-08-23T15:48:36;34.50;48.00
56184;DHT22;42086;53.170;6.980;2022-08-23T15:51:06;34.60;47.60
56184;DHT22;42086;53.170;6.980;2022-08-23T15:53:32;34.80;47.00
56184;DHT22;42086;53.170;6.980;2022-08-23T15:55:58;35.00;46.50
56184;DHT22;42086;53.170;6.980;2022-08-23T15:58:26;35.20;46.90
56184;DHT22;42086;53.170;6.980;2022-08-23T16:00:52;35.20;46.80
56184;DHT22;42086;53.170;6.980;2022-08-23T16:03:20;35.10;46.80
56184;DHT22;42086;53.170;6.980;2022-08-23T16:05:48;34.90;46.30
56184;DHT22;42086;53.170;6.980;2022-08-23T16:08:27;34.60;46.30
56184;DHT22;42086;53.170;6.980;2022-08-23T16:10:54;34.10;45.90
56184;DHT22;42086;53.170;6.980;2022-08-23T16:13:20;33.90;46.50
56184;DHT22;42086;53.170;6.980;2022-08-23T16:15:47;33.90;46.80
56184;DHT22;42086;53.170;6.980;2022-08-23T16:18:13;33.60;46.70
56184;DHT22;42086;53.170;6.980;2022-08-23T16:20:39;33.30;46.90
56184;DHT22;42086;53.170;6.980;2022-08-23T16:23:05;33.10;47.10
56184;DHT22;42086;53.170;6.980;2022-08-23T16:25:32;32.90;47.50
56184;DHT22;42086;53.170;6.980;2022-08-23T16:27:58;32.90;47.40
56184;DHT22;42086;53.170;6.980;2022-08-23T16:30:23;32.90;47.70
56184;DHT22;42086;53.170;6.980;2022-08-23T16:32:50;32.70;48.30
56184;DHT22;42086;53.170;6.980;2022-08-23T16:35:15;32.40;48.40
56184;DHT22;42086;53.170;6.980;2022-08-23T16:37:42;32.10;48.80
56184;DHT22;42086;53.170;6.980;2022-08-23T16:40:09;31.90;49.60
56184;DHT22;42086;53.170;6.980;2022-08-23T16:42:35;31.60;50.90
56184;DHT22;42086;53.170;6.980;2022-08-23T16:45:01;31.50;51.60
56184;DHT22;42086;53.170;6.980;2022-08-23T16:47:38;31.30;52.30
56184;DHT22;42086;53.170;6.980;2022-08-23T16:50:05;31.00;53.30
56184;DHT22;42086;53.170;6.980;2022-08-23T16:52:31;30.90;52.70
56184;DHT22;42086;53.170;6.980;2022-08-23T16:54:57;30.70;52.30
56184;DHT22;42086;53.170;6.980;2022-08-23T16:57:23;30.50;52.50
56184;DHT22;42086;53.170;6.980;2022-08-23T16:59:49;30.30;53.80
56184;DHT22;42086;53.170;6.980;2022-08-23T17:02:29;30.10;55.40
56184;DHT22;42086;53.170;6.980;2022-08-23T17:04:56;29.90;55.80
56184;DHT22;42086;53.170;6.980;2022-08-23T17:07:23;29.80;56.40
56184;DHT22;42086;53.170;6.980;2022-08-23T17:09:49;29.70;56.80
56184;DHT22;42086;53.170;6.980;2022-08-23T17:12:15;29.40;57.40
56184;DHT22;42086;53.170;6.980;2022-08-23T17:14:43;29.40;57.40
56184;DHT22;42086;53.170;6.980;2022-08-23T17:17:11;29.30;56.90
56184;DHT22;42086;53.170;6.980;2022-08-23T17:19:38;29.20;57.50
56184;DHT22;42086;53.170;6.980;2022-08-23T17:22:04;29.20;56.90
56184;DHT22;42086;53.170;6.980;2022-08-23T17:24:30;29.20;56.40
56184;DHT22;42086;53.170;6.980;2022-08-23T17:26:56;29.20;57.90
56184;DHT22;42086;53.170;6.980;2022-08-23T17:29:22;29.30;59.40
56184;DHT22;42086;53.170;6.980;2022-08-23T17:31:48;29.40;60.80
56184;DHT22;42086;53.170;6.980;2022-08-23T17:34:14;29.40;62.80
56184;DHT22;42086;53.170;6.980;2022-08-23T17:36:47;29.30;64.10